createdAt,value
2019-04-25T00:02:21.561Z,100308.02
2019-04-25T00:04:51.583Z,100287.46
2019-04-25T00:07:21.748Z,100272.44
2019-04-25T00:09:52.960Z,100282.16
2019-04-25T00:12:23.222Z,100280.19
2019-04-25T00:14:53.140Z,100297.71
2019-04-25T00:17:25.486Z,100309.97
2019-04-25T00:19:55.099Z,100303.94
2019-04-25T00:22:29.506Z,100287.69
2019-04-25T00:25:17.838Z,100283.94
2019-04-25T00:27:47.181Z,100311.45
2019-04-25T00:30:17.054Z,100284.87
2019-04-25T00:32:47.882Z,100259.44
2019-04-25T00:35:17.543Z,100281.78
2019-04-25T00:37:47.786Z,100274.28
2019-04-25T00:40:17.813Z,100309.36
2019-04-25T00:42:48.195Z,100301.99
2019-04-25T00:45:17.910Z,100279.67
2019-04-25T00:47:47.791Z,100284.54
2019-04-25T00:50:17.612Z,100272.92
2019-04-25T00:52:47.309Z,100269.73
2019-04-25T00:55:26.931Z,100257.72
2019-04-25T00:57:52.510Z,100248.70
2019-04-25T01:00:33.155Z,100246.33
2019-04-25T01:03:04.393Z,100270.65
2019-04-25T01:05:33.933Z,100290.09
2019-04-25T01:08:03.578Z,100300.66
2019-04-25T01:10:33.223Z,100308.97
2019-04-25T01:13:03.780Z,100311.77
2019-04-25T01:15:33.652Z,100312.09
2019-04-25T01:18:03.375Z,100324.40
2019-04-25T01:20:34.457Z,100340.35
2019-04-25T01:23:04.363Z,100353.55
2019-04-25T01:25:41.086Z,100365.94
2019-04-25T01:28:05.659Z,100371.29
2019-04-25T01:30:36.016Z,100371.15
2019-04-25T01:33:05.822Z,100390.68
2019-04-25T01:35:37.124Z,100392.63
2019-04-25T01:38:13.900Z,100399.56
2019-04-25T01:41:03.316Z,100410.53
2019-04-25T01:43:37.786Z,100410.60
2019-04-25T01:46:07.622Z,100408.86
2019-04-25T01:48:37.305Z,100413.41
2019-04-25T01:51:10.554Z,100417.38
2019-04-25T01:53:40.235Z,100427.37
2019-04-25T01:56:09.885Z,100421.48
2019-04-25T01:58:41.249Z,100422.23
2019-04-25T02:01:11.283Z,100433.26
2019-04-25T02:03:40.940Z,100438.06
2019-04-25T02:06:10.661Z,100438.16
2019-04-25T02:08:40.492Z,100447.47
2019-04-25T02:11:30.060Z,100442.15
2019-04-25T02:13:59.827Z,100444.25
2019-04-25T02:16:33.602Z,100443.66
2019-04-25T02:19:04.306Z,100440.77
2019-04-25T02:21:33.981Z,100439.88
2019-04-25T02:24:04.327Z,100442.87
2019-04-25T02:26:35.765Z,100440.30
2019-04-25T02:29:05.663Z,100441.51
2019-04-25T02:31:37.468Z,100438.80
2019-04-25T02:34:08.594Z,100448.45
2019-04-25T02:36:38.305Z,100442.24
2019-04-25T02:39:14.868Z,100444.88
2019-04-25T02:41:44.676Z,100452.52
2019-04-25T02:44:14.598Z,100441.83
2019-04-25T02:46:45.080Z,100431.28
2019-04-25T02:49:36.841Z,100442.70
2019-04-25T02:52:12.836Z,100447.05
2019-04-25T02:54:39.959Z,100455.34
2019-04-25T02:57:09.588Z,100454.64
2019-04-25T02:59:39.180Z,100460.83
2019-04-25T03:02:09.442Z,100451.45
2019-04-25T03:04:39.357Z,100447.38
2019-04-25T03:07:11.209Z,100439.15
2019-04-25T03:09:40.793Z,100448.52
2019-04-25T03:12:25.422Z,100455.65
2019-04-25T03:14:44.406Z,100445.95
2019-04-25T03:17:14.501Z,100443.44
2019-04-25T03:19:44.254Z,100440.59
2019-04-25T03:22:26.844Z,100438.73
2019-04-25T03:24:56.656Z,100441.39
2019-04-25T03:27:26.569Z,100437.92
2019-04-25T03:29:56.213Z,100447.47
2019-04-25T03:32:28.459Z,100451.25
2019-04-25T03:34:58.790Z,100449.82
2019-04-25T03:37:28.487Z,100445.16
2019-04-25T03:39:58.120Z,100436.59
2019-04-25T03:42:27.826Z,100438.39
2019-04-25T03:44:57.608Z,100447.48
2019-04-25T03:47:27.374Z,100447.56
2019-04-25T03:49:57.127Z,100451.78
2019-04-25T03:52:26.880Z,100458.78
2019-04-25T03:54:56.893Z,100468.58
2019-04-25T03:57:26.657Z,100473.05
2019-04-25T03:59:56.529Z,100487.38
2019-04-25T04:02:26.129Z,100487.70
2019-04-25T04:04:55.872Z,100488.36
2019-04-25T04:07:25.634Z,100503.86
2019-04-25T04:09:55.282Z,100510.80
2019-04-25T04:12:25.390Z,100520.22
2019-04-25T04:14:55.733Z,100524.89
2019-04-25T04:17:30.017Z,100538.87
2019-04-25T04:19:59.312Z,100550.31
2019-04-25T04:22:30.905Z,100558.00
2019-04-25T04:25:03.767Z,100565.40
2019-04-25T04:27:35.155Z,100572.83
2019-04-25T04:30:10.023Z,100568.39
2019-04-25T04:32:39.815Z,100575.05
2019-04-25T04:35:09.562Z,100578.94
2019-04-25T04:37:40.424Z,100587.64
2019-04-25T04:40:10.268Z,100585.41
2019-04-25T04:42:39.892Z,100596.13
2019-04-25T04:45:10.183Z,100598.44
2019-04-25T04:47:40.098Z,100598.09
2019-04-25T04:50:10.592Z,100599.47
2019-04-25T04:52:40.363Z,100613.89
2019-04-25T04:55:11.615Z,100609.36
2019-04-25T04:57:43.501Z,100614.09
2019-04-25T05:00:14.560Z,100607.66
2019-04-25T05:02:58.348Z,100607.92
2019-04-25T05:05:34.317Z,100616.66
2019-04-25T05:08:05.722Z,100619.30
2019-04-25T05:10:35.518Z,100622.76
2019-04-25T05:13:05.149Z,100624.71
2019-04-25T05:15:34.916Z,100633.56
2019-04-25T05:18:04.605Z,100637.23
2019-04-25T05:20:35.632Z,100633.53
2019-04-25T05:23:05.634Z,100641.23
2019-04-25T05:25:35.225Z,100640.91
2019-04-25T05:28:05.626Z,100644.80
2019-04-25T05:30:43.657Z,100649.26
2019-04-25T05:33:17.574Z,100650.77
2019-04-25T05:35:45.175Z,100644.92
2019-04-25T05:38:15.392Z,100647.20
2019-04-25T05:40:53.819Z,100651.50
2019-04-25T05:43:25.690Z,100655.13
2019-04-25T05:45:55.741Z,100670.58
2019-04-25T05:48:26.349Z,100664.40
2019-04-25T05:50:56.116Z,100673.50
2019-04-25T05:53:26.321Z,100668.62
2019-04-25T05:55:56.061Z,100674.86
2019-04-25T05:58:26.118Z,100679.42
2019-04-25T06:00:57.108Z,100683.15
2019-04-25T06:03:27.628Z,100679.06
2019-04-25T06:05:57.366Z,100687.59
2019-04-25T06:08:28.560Z,100687.54
2019-04-25T06:11:06.160Z,100699.13
2019-04-25T06:13:40.182Z,100696.56
2019-04-25T06:16:14.554Z,100712.93
2019-04-25T06:18:48.613Z,100703.17
2019-04-25T06:21:19.176Z,100711.28
2019-04-25T06:24:07.201Z,100711.17
2019-04-25T06:26:39.963Z,100710.59
2019-04-25T06:29:09.744Z,100713.52
2019-04-25T06:31:39.741Z,100717.17
2019-04-25T06:34:09.792Z,100718.94
2019-04-25T06:36:39.474Z,100714.19
2019-04-25T06:39:09.849Z,100715.73
2019-04-25T06:41:39.473Z,100719.69
2019-04-25T06:44:10.818Z,100720.47
2019-04-25T06:46:55.278Z,100722.70
2019-04-25T06:49:41.332Z,100716.02
2019-04-25T06:52:11.454Z,100711.20
2019-04-25T06:54:41.122Z,100711.03
2019-04-25T06:57:14.136Z,100707.40
2019-04-25T06:59:44.168Z,100700.81
2019-04-25T07:02:14.072Z,100709.56
2019-04-25T07:04:45.645Z,100697.03
2019-04-25T07:07:15.510Z,100700.16
2019-04-25T07:09:48.399Z,100701.09
2019-04-25T07:12:18.052Z,100705.48
2019-04-25T07:14:47.770Z,100701.17
2019-04-25T07:17:17.875Z,100696.05
2019-04-25T07:19:47.478Z,100694.78
2019-04-25T07:22:19.073Z,100692.14
2019-04-25T07:24:48.684Z,100697.08
2019-04-25T07:27:18.028Z,100705.08
2019-04-25T07:29:58.302Z,100712.95
2019-04-25T07:32:34.831Z,100714.22
2019-04-25T07:35:06.708Z,100713.15
2019-04-25T07:37:37.872Z,100706.74
2019-04-25T07:40:09.671Z,100714.06
2019-04-25T07:42:39.506Z,100715.52
2019-04-25T07:45:10.485Z,100721.27
2019-04-25T07:47:40.500Z,100710.34
2019-04-25T07:50:11.766Z,100719.48
2019-04-25T07:52:41.409Z,100726.41
2019-04-25T07:55:11.730Z,100715.67
2019-04-25T07:57:42.605Z,100719.16
2019-04-25T08:00:16.574Z,100714.72
2019-04-25T08:02:46.237Z,100719.63
2019-04-25T08:05:19.056Z,100727.55
2019-04-25T08:07:48.645Z,100716.88
2019-04-25T08:10:20.939Z,100720.88
2019-04-25T08:12:54.077Z,100717.53
2019-04-25T08:15:28.259Z,100715.01
2019-04-25T08:18:00.626Z,100711.12
2019-04-25T08:20:30.747Z,100715.70
2019-04-25T08:23:04.111Z,100702.33
2019-04-25T08:25:36.628Z,100705.77
2019-04-25T08:28:07.523Z,100706.53
2019-04-25T08:30:39.106Z,100701.30
2019-04-25T08:33:08.814Z,100700.88
2019-04-25T08:35:38.563Z,100701.80
2019-04-25T08:38:08.213Z,100708.20
2019-04-25T08:40:38.988Z,100693.30
2019-04-25T08:43:10.986Z,100694.40
2019-04-25T08:45:41.903Z,100686.25
2019-04-25T08:48:15.065Z,100690.64
2019-04-25T08:50:55.095Z,100705.63
2019-04-25T08:53:26.409Z,100702.13
2019-04-25T08:55:57.653Z,100709.66
2019-04-25T08:58:35.133Z,100715.59
2019-04-25T09:01:06.010Z,100719.97
2019-04-25T09:03:37.992Z,100728.80
2019-04-25T09:06:09.595Z,100730.21
2019-04-25T09:08:39.468Z,100733.14
2019-04-25T09:11:09.026Z,100744.19
2019-04-25T09:13:39.551Z,100736.84
2019-04-25T09:16:09.523Z,100743.22
2019-04-25T09:18:40.215Z,100733.86
2019-04-25T09:21:10.102Z,100746.20
2019-04-25T09:23:39.851Z,100734.61
2019-04-25T09:26:09.460Z,100739.48
2019-04-25T09:28:41.067Z,100737.88
2019-04-25T09:31:11.813Z,100728.94
2019-04-25T09:33:41.509Z,100737.14
2019-04-25T09:36:11.302Z,100721.45
2019-04-25T09:38:41.001Z,100726.54
2019-04-25T09:41:10.719Z,100728.77
2019-04-25T09:43:40.365Z,100722.62
2019-04-25T09:46:13.234Z,100719.80
2019-04-25T09:48:44.303Z,100732.98
2019-04-25T09:51:16.050Z,100729.35
2019-04-25T09:53:50.993Z,100731.00
2019-04-25T09:56:23.850Z,100763.03
2019-04-25T09:59:11.122Z,100741.33
2019-04-25T10:01:43.975Z,100734.28
2019-04-25T10:04:14.088Z,100725.13
2019-04-25T10:06:44.970Z,100739.41
2019-04-25T10:09:16.415Z,100726.30
2019-04-25T10:11:46.535Z,100734.16
2019-04-25T10:14:36.751Z,100735.45
2019-04-25T10:17:07.558Z,100730.86
2019-04-25T10:19:37.753Z,100742.97
2019-04-25T10:22:07.814Z,100743.17
2019-04-25T10:24:38.493Z,100739.19
2019-04-25T10:27:10.060Z,100731.73
2019-04-25T10:29:50.926Z,100736.76
2019-04-25T10:32:15.096Z,100725.18
2019-04-25T10:34:46.066Z,100729.30
2019-04-25T10:37:17.345Z,100711.05
2019-04-25T10:39:47.442Z,100713.44
2019-04-25T10:42:17.193Z,100713.31
2019-04-25T10:44:48.306Z,100718.94
2019-04-25T10:47:18.093Z,100722.00
2019-04-25T10:49:47.718Z,100726.56
2019-04-25T10:52:17.668Z,100722.66
2019-04-25T10:54:47.958Z,100727.48
2019-04-25T10:57:17.806Z,100725.61
2019-04-25T11:00:02.519Z,100720.36
2019-04-25T11:02:19.129Z,100717.00
2019-04-25T11:04:50.371Z,100718.94
2019-04-25T11:07:21.106Z,100721.55
2019-04-25T11:09:51.342Z,100703.21
2019-04-25T11:12:23.365Z,100720.95
2019-04-25T11:14:56.146Z,100719.41
2019-04-25T11:17:25.465Z,100722.49
2019-04-25T11:19:55.443Z,100712.81
2019-04-25T11:22:27.444Z,100708.91
2019-04-25T11:24:57.653Z,100705.31
2019-04-25T11:27:27.395Z,100712.12
2019-04-25T11:30:08.436Z,100694.33
2019-04-25T11:32:29.695Z,100683.64
2019-04-25T11:35:00.030Z,100696.56
2019-04-25T11:37:32.049Z,100693.66
2019-04-25T11:40:04.273Z,100698.86
2019-04-25T11:42:34.385Z,100686.31
2019-04-25T11:45:06.295Z,100691.68
2019-04-25T11:47:36.634Z,100694.36
2019-04-25T11:50:08.984Z,100692.39
2019-04-25T11:52:39.854Z,100692.83
2019-04-25T11:55:10.180Z,100690.35
2019-04-25T11:57:40.019Z,100685.20
2019-04-25T12:00:21.646Z,100698.05
2019-04-25T12:02:43.944Z,100710.68
2019-04-25T12:05:15.100Z,100695.95
2019-04-25T12:07:46.575Z,100695.02
2019-04-25T12:10:16.821Z,100687.73
2019-04-25T12:12:47.390Z,100687.78
2019-04-25T12:15:17.424Z,100678.25
2019-04-25T12:17:47.447Z,100675.53
2019-04-25T12:20:17.444Z,100683.17
2019-04-25T12:22:49.057Z,100676.34
2019-04-25T12:25:18.825Z,100674.22
2019-04-25T12:27:49.948Z,100679.23
2019-04-25T12:30:20.652Z,100685.08
2019-04-25T12:32:50.190Z,100686.74
2019-04-25T12:35:19.858Z,100683.95
2019-04-25T12:37:49.902Z,100684.14
2019-04-25T12:40:19.766Z,100682.53
2019-04-25T12:42:49.783Z,100683.36
2019-04-25T12:45:26.945Z,100689.52
2019-04-25T12:47:59.363Z,100681.06
2019-04-25T12:50:29.404Z,100679.79
2019-04-25T12:52:59.124Z,100682.55
2019-04-25T12:55:28.778Z,100684.48
2019-04-25T12:57:58.455Z,100689.23
2019-04-25T13:00:29.547Z,100689.42
2019-04-25T13:03:01.924Z,100698.73
2019-04-25T13:05:31.805Z,100690.34
2019-04-25T13:08:03.538Z,100680.27
2019-04-25T13:10:33.279Z,100689.11
2019-04-25T13:13:03.953Z,100689.80
2019-04-25T13:15:35.976Z,100696.76
2019-04-25T13:18:05.704Z,100693.98
2019-04-25T13:20:35.833Z,100709.03
2019-04-25T13:23:05.924Z,100680.06
2019-04-25T13:25:35.889Z,100672.56
2019-04-25T13:28:15.855Z,100683.93
2019-04-25T13:31:01.487Z,100681.17
2019-04-25T13:33:30.532Z,100676.59
2019-04-25T13:36:04.730Z,100682.41
2019-04-25T13:38:34.350Z,100673.11
2019-04-25T13:41:04.131Z,100667.83
2019-04-25T13:43:33.996Z,100679.78
2019-04-25T13:46:03.594Z,100674.78
2019-04-25T13:48:36.418Z,100677.83
2019-04-25T13:51:06.093Z,100672.22
2019-04-25T13:53:35.691Z,100669.74
2019-04-25T13:56:05.904Z,100665.98
2019-04-25T13:58:35.533Z,100663.37
2019-04-25T14:01:13.283Z,100662.53
2019-04-25T14:03:39.774Z,100660.02
2019-04-25T14:06:10.265Z,100651.38
2019-04-25T14:08:40.178Z,100648.75
2019-04-25T14:11:09.946Z,100645.33
2019-04-25T14:13:41.654Z,100638.06
2019-04-25T14:16:25.369Z,100641.57
2019-04-25T14:18:56.019Z,100636.34
2019-04-25T14:21:26.118Z,100640.70
2019-04-25T14:23:57.314Z,100639.58
2019-04-25T14:26:27.341Z,100624.11
2019-04-25T14:28:57.631Z,100628.30
2019-04-25T14:31:41.334Z,100627.72
2019-04-25T14:33:59.306Z,100623.85
2019-04-25T14:36:30.211Z,100629.42
2019-04-25T14:39:00.573Z,100631.60
2019-04-25T14:41:30.363Z,100631.04
2019-04-25T14:44:00.044Z,100621.30
2019-04-25T14:46:32.167Z,100624.98
2019-04-25T14:49:02.053Z,100616.34
2019-04-25T14:51:32.814Z,100621.36
2019-04-25T14:54:04.657Z,100610.21
2019-04-25T14:56:36.291Z,100612.40
2019-04-25T14:59:06.085Z,100622.96
2019-04-25T15:01:44.480Z,100622.53
2019-04-25T15:04:07.277Z,100608.36
2019-04-25T15:06:37.047Z,100611.00
2019-04-25T15:09:08.546Z,100613.84
2019-04-25T15:11:38.227Z,100605.02
2019-04-25T15:14:07.827Z,100613.33
2019-04-25T15:16:37.733Z,100608.98
2019-04-25T15:19:08.466Z,100608.36
2019-04-25T15:21:38.473Z,100610.05
2019-04-25T15:24:08.175Z,100615.45
2019-04-25T15:26:40.255Z,100618.50
2019-04-25T15:29:09.391Z,100622.41
2019-04-25T15:31:39.257Z,100620.20
2019-04-25T15:34:09.396Z,100604.83
2019-04-25T15:36:43.737Z,100618.44
2019-04-25T15:39:14.720Z,100603.20
2019-04-25T15:41:44.123Z,100595.10
2019-04-25T15:44:15.924Z,100605.45
2019-04-25T15:46:47.223Z,100595.77
2019-04-25T15:49:17.124Z,100598.09
2019-04-25T15:51:46.997Z,100596.98
2019-04-25T15:54:16.764Z,100597.73
2019-04-25T15:56:46.665Z,100588.55
2019-04-25T15:59:16.302Z,100601.90
2019-04-25T16:01:46.466Z,100588.27
2019-04-25T16:04:16.162Z,100588.71
2019-04-25T16:06:46.399Z,100590.70
2019-04-25T16:09:16.325Z,100581.52
2019-04-25T16:11:46.162Z,100581.31
2019-04-25T16:14:16.250Z,100575.48
2019-04-25T16:16:45.996Z,100578.03
2019-04-25T16:19:15.626Z,100567.41
2019-04-25T16:21:45.346Z,100577.31
2019-04-25T16:24:15.080Z,100574.45
2019-04-25T16:26:45.892Z,100573.32
2019-04-25T16:29:15.626Z,100565.20
2019-04-25T16:31:45.342Z,100579.89
2019-04-25T16:34:16.673Z,100565.11
2019-04-25T16:36:50.707Z,100563.28
2019-04-25T16:39:22.937Z,100570.55
2019-04-25T16:41:52.771Z,100566.52
2019-04-25T16:44:22.594Z,100564.05
2019-04-25T16:46:52.681Z,100566.26
2019-04-25T16:49:22.895Z,100565.56
2019-04-25T16:51:53.405Z,100566.26
2019-04-25T16:54:23.112Z,100555.44
2019-04-25T16:56:53.130Z,100556.58
2019-04-25T16:59:26.443Z,100562.06
2019-04-25T17:01:56.315Z,100569.48
2019-04-25T17:04:26.282Z,100564.12
2019-04-25T17:06:57.561Z,100568.70
2019-04-25T17:09:27.240Z,100567.80
2019-04-25T17:11:57.247Z,100565.56
2019-04-25T17:14:28.505Z,100573.27
2019-04-25T17:17:18.124Z,100563.52
2019-04-25T17:19:50.182Z,100568.52
2019-04-25T17:22:21.619Z,100556.83
2019-04-25T17:24:51.355Z,100557.63
2019-04-25T17:27:21.561Z,100560.61
2019-04-25T17:29:51.401Z,100564.25
2019-04-25T17:32:50.397Z,100566.30
2019-04-25T17:35:28.525Z,100566.72
2019-04-25T17:38:05.523Z,100562.53
2019-04-25T17:40:35.639Z,100571.39
2019-04-25T17:43:11.307Z,100570.77
2019-04-25T17:45:39.137Z,100570.07
2019-04-25T17:48:09.316Z,100568.77
2019-04-25T17:50:39.705Z,100563.95
2019-04-25T17:53:09.705Z,100561.98
2019-04-25T17:55:39.599Z,100563.03
2019-04-25T17:58:09.219Z,100566.12
2019-04-25T18:00:43.758Z,100562.41
2019-04-25T18:03:14.448Z,100556.44
2019-04-25T18:05:44.696Z,100556.30
2019-04-25T18:08:16.841Z,100555.86
2019-04-25T18:10:48.271Z,100549.36
2019-04-25T18:13:18.030Z,100555.56
2019-04-25T18:15:51.939Z,100553.89
2019-04-25T18:18:39.190Z,100552.90
2019-04-25T18:21:09.182Z,100552.47
2019-04-25T18:23:56.861Z,100552.01
2019-04-25T18:26:31.267Z,100550.19
2019-04-25T18:29:14.722Z,100549.31
2019-04-25T18:31:44.369Z,100546.48
2019-04-25T18:34:18.952Z,100544.39
2019-04-25T18:36:51.181Z,100548.37
2019-04-25T18:39:25.376Z,100551.23
2019-04-25T18:41:59.206Z,100548.58
2019-04-25T18:44:28.857Z,100552.52
2019-04-25T18:46:58.470Z,100555.86
2019-04-25T18:49:28.161Z,100552.16
2019-04-25T18:51:59.861Z,100549.31
2019-04-25T18:54:34.051Z,100555.57
2019-04-25T18:57:11.778Z,100555.64
2019-04-25T18:59:54.518Z,100562.03
2019-04-25T19:02:42.190Z,100561.09
2019-04-25T19:05:31.838Z,100565.27
2019-04-25T19:08:01.609Z,100568.06
2019-04-25T19:10:31.671Z,100567.48
2019-04-25T19:13:12.064Z,100558.25
2019-04-25T19:15:32.800Z,100553.39
2019-04-25T19:18:02.378Z,100554.19
2019-04-25T19:20:33.093Z,100550.53
2019-04-25T19:23:02.767Z,100549.16
2019-04-25T19:25:32.590Z,100548.77
2019-04-25T19:28:02.261Z,100547.77
2019-04-25T19:30:31.959Z,100541.55
2019-04-25T19:33:01.590Z,100537.45
2019-04-25T19:35:31.504Z,100543.34
2019-04-25T19:38:02.975Z,100545.61
2019-04-25T19:40:38.152Z,100545.48
2019-04-25T19:43:21.622Z,100542.08
2019-04-25T19:45:51.354Z,100528.63
2019-04-25T19:48:21.112Z,100531.58
2019-04-25T19:50:51.285Z,100524.39
2019-04-25T19:53:20.999Z,100524.20
2019-04-25T19:55:51.745Z,100529.22
2019-04-25T19:58:24.537Z,100527.45
2019-04-25T20:00:54.279Z,100528.78
2019-04-25T20:03:25.615Z,100526.06
2019-04-25T20:06:02.468Z,100524.30
2019-04-25T20:08:33.718Z,100523.51
2019-04-25T20:11:05.805Z,100519.66
2019-04-25T20:13:35.574Z,100520.66
2019-04-25T20:16:05.459Z,100516.66
2019-04-25T20:18:35.139Z,100516.41
2019-04-25T20:21:05.300Z,100525.14
2019-04-25T20:23:35.047Z,100523.41
2019-04-25T20:26:04.805Z,100523.30
2019-04-25T20:28:34.500Z,100518.58
2019-04-25T20:31:04.192Z,100521.23
2019-04-25T20:33:33.921Z,100511.09
2019-04-25T20:36:03.909Z,100514.02
2019-04-25T20:38:33.599Z,100512.56
2019-04-25T20:41:03.454Z,100514.11
2019-04-25T20:43:37.534Z,100512.70
2019-04-25T20:46:07.159Z,100504.66
2019-04-25T20:48:36.832Z,100508.02
2019-04-25T20:51:07.073Z,100506.75
2019-04-25T20:53:37.776Z,100514.30
2019-04-25T20:56:07.923Z,100514.72
2019-04-25T20:58:37.484Z,100510.52
2019-04-25T21:01:07.170Z,100505.73
2019-04-25T21:03:37.312Z,100500.39
2019-04-25T21:06:21.691Z,100507.30
2019-04-25T21:08:51.798Z,100508.02
2019-04-25T21:11:21.320Z,100505.94
2019-04-25T21:13:55.228Z,100505.61
2019-04-25T21:16:43.873Z,100504.53
2019-04-25T21:19:22.302Z,100499.62
2019-04-25T21:21:55.044Z,100499.09
2019-04-25T21:24:24.593Z,100499.27
2019-04-25T21:26:54.653Z,100506.83
2019-04-25T21:29:24.635Z,100503.59
2019-04-25T21:31:54.682Z,100508.75
2019-04-25T21:34:26.767Z,100501.63
2019-04-25T21:36:55.860Z,100504.08
2019-04-25T21:39:33.150Z,100502.27
2019-04-25T21:42:13.789Z,100503.52
2019-04-25T21:44:43.879Z,100501.30
2019-04-25T21:47:13.614Z,100506.81
2019-04-25T21:49:43.883Z,100509.05
2019-04-25T21:52:13.427Z,100509.95
2019-04-25T21:54:44.566Z,100511.56
2019-04-25T21:57:15.015Z,100504.20
2019-04-25T21:59:44.777Z,100500.91
2019-04-25T22:02:14.682Z,100495.45
2019-04-25T22:04:44.688Z,100498.20
2019-04-25T22:07:14.854Z,100494.60
2019-04-25T22:09:45.023Z,100491.32
2019-04-25T22:12:15.830Z,100487.25
2019-04-25T22:14:45.779Z,100485.88
2019-04-25T22:17:15.791Z,100483.01
2019-04-25T22:19:46.342Z,100474.63
2019-04-25T22:22:16.982Z,100479.05
2019-04-25T22:24:47.411Z,100473.84
2019-04-25T22:27:19.065Z,100480.67
2019-04-25T22:29:50.457Z,100474.14
2019-04-25T22:32:25.202Z,100471.57
2019-04-25T22:35:01.541Z,100470.02
2019-04-25T22:37:31.823Z,100476.48
2019-04-25T22:40:01.959Z,100475.88
2019-04-25T22:42:31.858Z,100475.40
2019-04-25T22:45:02.112Z,100464.72
2019-04-25T22:47:31.746Z,100469.62
2019-04-25T22:50:02.549Z,100472.44
2019-04-25T22:52:32.527Z,100466.09
2019-04-25T22:55:02.214Z,100466.59
2019-04-25T22:57:32.660Z,100467.25
2019-04-25T23:00:03.305Z,100471.89
2019-04-25T23:02:34.910Z,100464.64
2019-04-25T23:05:22.212Z,100462.65
2019-04-25T23:07:51.737Z,100469.78
2019-04-25T23:10:21.797Z,100466.76
2019-04-25T23:12:51.566Z,100459.58
2019-04-25T23:15:21.277Z,100462.97
2019-04-25T23:17:51.001Z,100461.89
2019-04-25T23:20:21.024Z,100463.33
2019-04-25T23:22:50.544Z,100455.53
2019-04-25T23:25:21.912Z,100460.42
2019-04-25T23:28:02.450Z,100452.91
2019-04-25T23:30:34.850Z,100448.03
2019-04-25T23:33:05.749Z,100446.74
2019-04-25T23:35:35.786Z,100455.36
2019-04-25T23:38:06.091Z,100444.51
2019-04-25T23:40:36.556Z,100454.37
2019-04-25T23:43:09.386Z,100445.50
2019-04-25T23:45:39.230Z,100447.55
2019-04-25T23:48:09.059Z,100447.95
2019-04-25T23:50:38.763Z,100450.37
2019-04-25T23:53:08.966Z,100445.34
2019-04-25T23:55:39.132Z,100445.53
2019-04-25T23:58:12.549Z,100449.49
